Time;durP1;ratioP1;P1;durP2;ratioP2;P2;SDS_P1;SDS_P2;PMS_P1;PMS_P2;Temp;Humidity;BMP_temperature;BMP_pressure;BME280_temperature;BME280_humidity;BME280_pressure;Samples;Min_cycle;Max_cycle;Signal;HPM_P1;HPM_P2
2021/11/01 00:01:32;;;;;;;;;;;;;;;10.00;78.35;98010.16;5048927;28;20380;-72
2021/11/01 00:04:02;;;;;;;;;;;;;;;10.02;78.77;98013.50;5049602;28;19917;-72
2021/11/01 00:06:28;;;;;;;;;;;;;;;10.01;78.62;98023.19;5048463;28;20043;-72
2021/11/01 00:08:53;;;;;;;;;;;;;;;10.00;78.00;98021.50;5049576;28;20392;-72
2021/11/01 00:11:19;;;;;;;;;;;;;;;10.00;78.26;98020.69;5048980;28;19917;-72
2021/11/01 00:13:44;;;;;;;;;;;;;;;9.97;78.10;98024.38;5030608;28;19920;-72
2021/11/01 00:16:10;;;;;;;;;;;;;;;9.99;78.26;98017.22;5048266;28;19924;-72
2021/11/01 00:18:36;;;;;;;;;;;;;;;9.99;77.88;98013.72;5050238;28;19920;-73
2021/11/01 00:21:04;;;;;;;;;;;;;;;9.96;77.70;98012.16;5048557;28;19916;-72
2021/11/01 00:23:29;;;;;;;;;;;;;;;9.94;77.80;98008.81;5047711;28;20306;-73
2021/11/01 00:25:54;;;;;;;;;;;;;;;9.92;77.60;98007.25;5044802;28;20411;-72
2021/11/01 00:28:20;;;;;;;;;;;;;;;9.92;77.88;98009.88;5049166;28;20402;-73
2021/11/01 00:30:45;;;;;;;;;;;;;;;9.92;77.93;98015.13;5046908;28;19948;-73
2021/11/01 00:33:11;;;;;;;;;;;;;;;9.91;77.75;98013.47;5049327;28;19931;-73
2021/11/01 00:35:37;;;;;;;;;;;;;;;9.91;77.38;98014.31;5064350;28;20023;-73
2021/11/01 00:38:02;;;;;;;;;;;;;;;9.95;77.13;98013.13;5047108;28;19917;-74
2021/11/01 00:40:28;;;;;;;;;;;;;;;9.93;77.36;98007.13;5048277;28;19931;-73
2021/11/01 00:43:03;;;;;;;;;;;;;;;9.94;77.19;98007.97;5048687;28;20328;-73
2021/11/01 00:45:29;;;;;;;;;;;;;;;9.88;76.93;97996.13;5029992;28;20004;-74
2021/11/01 00:47:54;;;;;;;;;;;;;;;9.84;77.34;97998.13;5020228;28;20012;-73
2021/11/01 00:50:20;;;;;;;;;;;;;;;9.80;77.10;97995.88;5031866;28;19921;-72
2021/11/01 00:52:45;;;;;;;;;;;;;;;9.83;77.47;98000.88;5037389;28;19920;-72
2021/11/01 00:55:20;;;;;;;;;;;;;;;9.84;77.09;97997.28;5014949;28;19923;-72
2021/11/01 00:57:45;;;;;;;;;;;;;;;9.82;77.65;97996.56;5049283;28;19921;-73
2021/11/01 01:00:11;;;;;;;;;;;;;;;9.84;77.58;97997.28;5030409;28;20416;-71
2021/11/01 01:02:36;;;;;;;;;;;;;;;9.87;76.87;97991.81;5015156;28;19924;-72
2021/11/01 01:05:05;;;;;;;;;;;;;;;9.82;77.32;97989.53;5048121;28;19921;-72
2021/11/01 01:07:31;;;;;;;;;;;;;;;9.80;77.08;97987.97;5048437;28;20663;-72
2021/11/01 01:09:59;;;;;;;;;;;;;;;9.79;77.09;97988.91;5048658;28;19927;-72
2021/11/01 01:12:24;;;;;;;;;;;;;;;9.82;76.92;97986.91;5046741;28;19917;-71
2021/11/01 01:15:09;;;;;;;;;;;;;;;9.82;77.16;97989.53;5030329;28;19928;-73
2021/11/01 01:17:38;;;;;;;;;;;;;;;9.83;77.05;97982.47;5048813;28;19923;-72
2021/11/01 01:20:14;;;;;;;;;;;;;;;9.77;76.42;97977.66;5047484;28;20307;-71
2021/11/01 01:22:43;;;;;;;;;;;;;;;9.76;76.55;97975.97;5039376;28;19920;-71
2021/11/01 01:25:44;;;;;;;;;;;;;;;9.74;76.29;97972.63;5031528;28;19917;-73
2021/11/01 01:28:06;;;;;;;;;;;;;;;9.73;77.17;97977.06;5018906;28;19929;-73
2021/11/01 01:30:32;;;;;;;;;;;;;;;9.72;76.55;97969.25;5050818;28;19925;-72
2021/11/01 01:33:00;;;;;;;;;;;;;;;9.68;77.20;97966.03;5032972;28;19920;-75
2021/11/01 01:35:25;;;;;;;;;;;;;;;9.68;77.11;97976.56;5051959;28;19987;-71
2021/11/01 01:37:53;;;;;;;;;;;;;;;9.68;76.91;97972.13;5014080;28;20006;-70
2021/11/01 01:40:18;;;;;;;;;;;;;;;9.71;77.04;97975.50;5040616;28;19917;-73
2021/11/01 01:42:44;;;;;;;;;;;;;;;9.66;76.88;97981.94;5041964;28;19943;-72
2021/11/01 01:45:09;;;;;;;;;;;;;;;9.70;77.19;97977.28;5007344;28;20388;-73
2021/11/01 01:47:35;;;;;;;;;;;;;;;9.72;77.19;97970.13;5053253;28;19925;-73
2021/11/01 01:50:02;;;;;;;;;;;;;;;9.68;77.19;97969.50;5056901;28;20527;-73
2021/11/01 01:52:27;;;;;;;;;;;;;;;9.70;77.14;97958.88;5050882;28;19923;-72
2021/11/01 01:54:53;;;;;;;;;;;;;;;9.67;77.33;97961.72;5056759;28;20007;-71
2021/11/01 01:57:18;;;;;;;;;;;;;;;9.63;77.46;97966.38;5056469;28;19916;-72
2021/11/01 01:59:44;;;;;;;;;;;;;;;9.61;77.54;97963.00;5055643;28;20023;-72
2021/11/01 02:02:09;;;;;;;;;;;;;;;9.61;77.16;97963.00;5028283;28;20391;-71
2021/11/01 02:04:37;;;;;;;;;;;;;;;9.62;77.43;97964.72;5052741;28;20017;-71
2021/11/01 02:07:13;;;;;;;;;;;;;;;9.60;77.67;97963.16;5053255;28;19921;-72
2021/11/01 02:09:38;;;;;;;;;;;;;;;9.62;77.78;97967.34;5052865;28;19916;-72
2021/11/01 02:12:06;;;;;;;;;;;;;;;9.65;78.32;97974.16;5033414;28;19921;-71
2021/11/01 02:14:36;;;;;;;;;;;;;;;9.65;77.87;97972.38;5051858;28;20300;-71
2021/11/01 02:17:01;;;;;;;;;;;;;;;9.66;77.69;97965.31;5052339;28;19931;-71
2021/11/01 02:19:28;;;;;;;;;;;;;;;9.65;78.08;97969.72;5052455;28;20003;-73
2021/11/01 02:21:58;;;;;;;;;;;;;;;9.65;77.85;97956.56;5050792;28;20377;-72
2021/11/01 02:24:30;;;;;;;;;;;;;;;9.66;78.60;97952.16;5051542;28;19928;-73
2021/11/01 02:26:55;;;;;;;;;;;;;;;9.65;78.45;97958.38;5051281;28;19931;-72
2021/11/01 02:29:23;;;;;;;;;;;;;;;9.64;77.56;97954.88;5051665;28;20372;-72
2021/11/01 02:31:49;;;;;;;;;;;;;;;9.67;78.44;97954.69;5050619;28;19959;-72
2021/11/01 02:34:14;;;;;;;;;;;;;;;9.65;78.41;97950.50;5049230;28;19952;-72
2021/11/01 02:36:43;;;;;;;;;;;;;;;9.63;78.35;97945.31;5049785;28;20525;-72
2021/11/01 02:39:10;;;;;;;;;;;;;;;9.63;78.37;97950.59;5051097;28;19931;-72
2021/11/01 02:41:36;;;;;;;;;;;;;;;9.66;77.84;97952.16;5032493;28;19917;-72
2021/11/01 02:44:05;;;;;;;;;;;;;;;9.67;78.27;97952.03;5051092;28;20316;-73
2021/11/01 02:46:31;;;;;;;;;;;;;;;9.65;77.74;97948.69;5050728;28;19921;-72
2021/11/01 02:48:57;;;;;;;;;;;;;;;9.67;77.34;97945.91;5050743;28;19970;-72
2021/11/01 02:51:23;;;;;;;;;;;;;;;9.72;77.65;97937.69;5050769;28;20383;-72
2021/11/01 02:53:50;;;;;;;;;;;;;;;9.71;77.45;97939.47;5051529;28;20008;-72
2021/11/01 02:56:15;;;;;;;;;;;;;;;9.68;77.24;97937.94;5033094;28;19928;-72
2021/11/01 02:58:41;;;;;;;;;;;;;;;9.66;77.60;97931.09;5050685;28;19921;-72
2021/11/01 03:01:11;;;;;;;;;;;;;;;9.70;77.66;97929.94;5050243;28;19917;-72
2021/11/01 03:03:37;;;;;;;;;;;;;;;9.66;77.69;97931.09;5050140;28;19960;-72
2021/11/01 03:06:03;;;;;;;;;;;;;;;9.67;77.52;97927.50;5050338;28;19925;-73
2021/11/01 03:08:30;;;;;;;;;;;;;;;9.71;76.97;97922.88;5050574;28;19917;-72
2021/11/01 03:10:56;;;;;;;;;;;;;;;9.75;77.00;97925.16;5048571;28;20350;-72
2021/11/01 03:13:23;;;;;;;;;;;;;;;9.74;77.27;97933.97;5051020;28;19917;-73
2021/11/01 03:15:48;;;;;;;;;;;;;;;9.72;77.15;97930.66;5049805;28;19995;-72
2021/11/01 03:18:14;;;;;;;;;;;;;;;9.67;77.31;97933.63;5049249;28;20008;-72
2021/11/01 03:20:40;;;;;;;;;;;;;;;9.65;77.48;97930.28;5048709;28;20000;-73
2021/11/01 03:23:11;;;;;;;;;;;;;;;9.64;76.90;97923.31;5049802;28;20022;-73
2021/11/01 03:25:42;;;;;;;;;;;;;;;9.65;76.96;97925.00;5049075;28;20304;-73
2021/11/01 03:28:08;;;;;;;;;;;;;;;9.70;77.10;97926.44;5049655;28;19932;-73
2021/11/01 03:30:34;;;;;;;;;;;;;;;9.68;76.02;97923.94;5049508;28;19932;-71
2021/11/01 03:33:00;;;;;;;;;;;;;;;9.70;76.09;97929.06;5050078;28;19920;-72
2021/11/01 03:35:26;;;;;;;;;;;;;;;9.70;75.97;97929.06;5050172;28;19917;-73
2021/11/01 03:37:53;;;;;;;;;;;;;;;9.70;75.20;97931.69;5050335;28;19920;-73
2021/11/01 03:40:20;;;;;;;;;;;;;;;9.72;74.84;97938.53;5049040;28;19967;-73
2021/11/01 03:42:47;;;;;;;;;;;;;;;9.71;74.56;97938.66;5048516;28;19928;-72
2021/11/01 03:45:13;;;;;;;;;;;;;;;9.74;75.21;97933.97;5053323;28;19928;-72
2021/11/01 03:47:42;;;;;;;;;;;;;;;9.73;74.54;97939.38;5059467;28;20408;-72
2021/11/01 03:50:20;;;;;;;;;;;;;;;9.72;74.49;97932.41;5050213;28;19984;-72
2021/11/01 03:52:48;;;;;;;;;;;;;;;9.74;74.00;97933.16;5050242;28;20368;-72
2021/11/01 03:55:13;;;;;;;;;;;;;;;9.72;74.17;97935.91;5049258;28;19921;-71
2021/11/01 03:57:39;;;;;;;;;;;;;;;9.72;74.57;97930.66;5048883;28;19939;-72
2021/11/01 04:00:06;;;;;;;;;;;;;;;9.71;74.20;97928.13;5048342;28;20337;-72
2021/11/01 04:02:31;;;;;;;;;;;;;;;9.63;74.52;97937.44;5048781;28;20298;-72
2021/11/01 04:04:59;;;;;;;;;;;;;;;9.62;74.74;97935.78;5030473;28;19920;-72
2021/11/01 04:07:24;;;;;;;;;;;;;;;9.64;74.04;97933.00;5048881;28;20307;-72
2021/11/01 04:09:50;;;;;;;;;;;;;;;9.64;74.29;97933.00;5049084;28;19927;-72
2021/11/01 04:12:15;;;;;;;;;;;;;;;9.64;74.43;97946.16;5048164;28;19917;-72
2021/11/01 04:14:45;;;;;;;;;;;;;;;9.60;74.30;97942.94;5048476;28;19924;-72
2021/11/01 04:20:01;;;;;;;;;;;;;;;9.59;73.74;97946.50;4998419;28;19923;-72
2021/11/01 04:22:29;;;;;;;;;;;;;;;9.59;74.09;97954.38;5049128;28;19967;-71
2021/11/01 04:24:54;;;;;;;;;;;;;;;9.60;73.84;97956.09;5049527;28;19939;-72
2021/11/01 04:27:19;;;;;;;;;;;;;;;9.60;74.24;97958.72;5049592;28;19924;-71
2021/11/01 04:29:45;;;;;;;;;;;;;;;9.58;73.88;97962.41;5047641;28;19928;-71
2021/11/01 04:32:15;;;;;;;;;;;;;;;9.58;74.34;97954.53;5012347;28;19917;-71
2021/11/01 04:34:46;;;;;;;;;;;;;;;9.54;73.28;97953.06;5011313;28;19917;-72
2021/11/01 04:37:11;;;;;;;;;;;;;;;9.55;73.49;97957.34;5028744;28;20008;-73
2021/11/01 04:39:47;;;;;;;;;;;;;;;9.53;73.31;97967.19;4995090;28;19996;-71
2021/11/01 04:42:39;;;;;;;;;;;;;;;9.53;73.58;97972.44;5028565;28;20352;-71
2021/11/01 04:53:13;;;;;;;;;;;;;;;9.43;73.51;97967.03;5049454;28;19924;-71
2021/11/01 04:55:40;;;;;;;;;;;;;;;9.44;73.44;97966.06;5049051;28;20010;-72
2021/11/01 04:58:06;;;;;;;;;;;;;;;9.41;74.28;97975.00;5048706;28;19917;-72
2021/11/01 05:00:31;;;;;;;;;;;;;;;9.39;74.72;97957.66;5049878;28;19921;-73
2021/11/01 05:03:12;;;;;;;;;;;;;;;9.30;73.79;97959.16;5051749;28;19928;-73
2021/11/01 05:05:38;;;;;;;;;;;;;;;9.31;73.90;97946.88;5051858;28;19924;-73
2021/11/01 05:08:04;;;;;;;;;;;;;;;9.31;73.89;97962.66;5052863;28;19925;-72
2021/11/01 05:10:38;;;;;;;;;;;;;;;9.31;73.40;97952.16;5052130;28;20399;-73
2021/11/01 05:13:10;;;;;;;;;;;;;;;9.24;73.66;97942.06;5052504;28;19923;-72
2021/11/01 05:15:42;;;;;;;;;;;;;;;9.24;73.71;97942.06;5052721;28;20387;-71
2021/11/01 05:22:08;;;;;;;;;;;;;;;9.26;73.00;97943.75;5020216;28;20327;-73
2021/11/01 05:23:59;;;;;;;;;;;;;;;9.27;72.91;97950.69;5039001;28;19970;-73
2021/11/01 05:26:40;;;;;;;;;;;;;;;9.31;73.45;97950.34;5051620;28;20299;-73
2021/11/01 05:29:08;;;;;;;;;;;;;;;9.32;73.40;97953.81;5052733;28;20000;-72
2021/11/01 05:31:42;;;;;;;;;;;;;;;9.26;73.12;97952.47;5051761;28;19999;-72
2021/11/01 05:34:15;;;;;;;;;;;;;;;9.25;72.57;97958.66;5034634;28;20012;-72
2021/11/01 05:36:40;;;;;;;;;;;;;;;9.17;72.86;97958.41;5050408;28;20003;-73
2021/11/01 05:39:06;;;;;;;;;;;;;;;9.19;73.22;97943.38;5052512;28;20020;-72
2021/11/01 05:41:31;;;;;;;;;;;;;;;9.18;72.65;97944.28;5051548;28;19924;-73
2021/11/01 05:43:57;;;;;;;;;;;;;;;9.19;72.61;97954.72;5034360;28;20008;-73
2021/11/01 05:46:23;;;;;;;;;;;;;;;9.19;72.66;97946.81;5051384;28;20007;-72
2021/11/01 05:48:52;;;;;;;;;;;;;;;9.19;72.40;97952.09;5034554;28;19924;-73
2021/11/01 05:51:19;;;;;;;;;;;;;;;9.15;72.76;97958.50;5051862;28;19921;-72
2021/11/01 05:53:49;;;;;;;;;;;;;;;9.17;73.17;97953.16;5052195;28;19925;-73
2021/11/01 05:56:26;;;;;;;;;;;;;;;9.13;72.63;97963.06;5051932;28;19925;-72
2021/11/01 06:04:05;;;;;;;;;;;;;;;9.09;73.46;97972.09;5051326;28;19921;-73
2021/11/01 06:14:36;;;;;;;;;;;;;;;9.09;72.53;97980.00;5051845;28;20029;-72
2021/11/01 06:17:02;;;;;;;;;;;;;;;9.14;72.83;97979.66;5051564;28;19924;-72
2021/11/01 06:19:27;;;;;;;;;;;;;;;9.10;73.40;97981.66;5051904;28;19916;-72
2021/11/01 06:21:53;;;;;;;;;;;;;;;9.08;73.46;97987.97;5051661;28;20360;-72
2021/11/01 06:27:02;;;;;;;;;;;;;;;9.11;73.47;97985.16;5052029;28;20008;-73
2021/11/01 06:29:31;;;;;;;;;;;;;;;9.10;72.93;97993.97;5051718;28;20337;-72
2021/11/01 06:53:36;;;;;;;;;;;;;;;9.23;72.71;98015.81;5049870;28;19921;-74
2021/11/01 06:56:36;;;;;;;;;;;;;;;9.19;72.77;98019.59;5050343;28;19996;-72
2021/11/01 07:14:05;;;;;;;;;;;;;;;9.22;72.81;98022.00;5048384;28;19920;-73
2021/11/01 07:15:39;;;;;;;;;;;;;;;9.43;72.86;98049.38;5050809;28;19947;-71
2021/11/01 07:18:16;;;;;;;;;;;;;;;9.45;72.45;98046.63;5050651;28;19975;-72
2021/11/01 08:23:29;;;;;;;;;;;;;;;10.52;69.15;98095.78;5049647;28;19921;-71
2021/11/01 09:09:53;;;;;;;;;;;;;;;16.68;48.75;98055.16;5049132;28;19960;-72
2021/11/01 09:18:44;;;;;;;;;;;;;;;17.62;46.15;98052.63;5048236;28;19924;-72
2021/11/01 09:26:51;;;;;;;;;;;;;;;19.52;41.84;98058.44;5048495;28;20275;-72
2021/11/01 09:42:31;;;;;;;;;;;;;;;19.45;40.69;98049.47;5049787;28;19923;-72
2021/11/01 09:44:57;;;;;;;;;;;;;;;19.36;40.43;98051.31;5049864;28;20404;-71
2021/11/01 09:47:23;;;;;;;;;;;;;;;18.61;40.58;98062.38;5025893;28;19921;-73
2021/11/01 09:49:51;;;;;;;;;;;;;;;17.32;42.39;98053.03;5055928;28;19999;-72
2021/11/01 09:52:16;;;;;;;;;;;;;;;17.42;42.26;98068.03;5056150;28;20011;-73
2021/11/01 09:54:43;;;;;;;;;;;;;;;17.53;41.45;98051.78;5055031;28;19951;-74
2021/11/01 09:57:19;;;;;;;;;;;;;;;17.34;42.11;98063.53;5053468;28;19971;-72
2021/11/01 09:59:45;;;;;;;;;;;;;;;17.42;41.74;98057.38;5054140;28;19946;-72
2021/11/01 10:02:13;;;;;;;;;;;;;;;17.53;41.62;98059.78;5052618;28;20015;-72
2021/11/01 10:04:41;;;;;;;;;;;;;;;17.51;40.74;98062.59;5057772;28;20004;-72
2021/11/01 10:09:42;;;;;;;;;;;;;;;17.00;41.96;98066.19;5061431;28;19994;-72
2021/11/01 10:12:12;;;;;;;;;;;;;;;15.94;44.62;98068.88;5062327;28;19928;-73
2021/11/01 10:14:48;;;;;;;;;;;;;;;15.35;45.90;98063.91;5056475;28;19916;-73
2021/11/01 10:19:58;;;;;;;;;;;;;;;15.33;46.49;98068.53;5054065;28;19927;-74
2021/11/01 10:22:31;;;;;;;;;;;;;;;15.25;46.58;98069.28;5033655;28;19995;-73
2021/11/01 10:24:57;;;;;;;;;;;;;;;15.32;46.47;98071.34;5051582;28;19921;-72
2021/11/01 10:27:30;;;;;;;;;;;;;;;15.26;46.66;98070.13;5050799;28;20003;-73
2021/11/01 10:30:00;;;;;;;;;;;;;;;15.07;46.79;98059.59;5051722;28;19924;-74
2021/11/01 10:32:34;;;;;;;;;;;;;;;15.03;47.28;98072.31;5049537;28;19923;-74
2021/11/01 10:35:15;;;;;;;;;;;;;;;14.72;48.28;98082.34;5051402;28;19920;-73
2021/11/01 10:37:55;;;;;;;;;;;;;;;14.50;48.71;98078.19;5051226;28;19920;-73
2021/11/01 10:40:25;;;;;;;;;;;;;;;14.51;48.28;98074.53;5050615;28;19920;-73
2021/11/01 10:42:50;;;;;;;;;;;;;;;14.38;48.18;98070.38;5051016;28;19921;-72
2021/11/01 11:12:55;;;;;;;;;;;;;;;14.22;49.60;98056.03;5051371;28;19924;-73
2021/11/01 11:15:22;;;;;;;;;;;;;;;14.05;49.19;98063.69;5032453;28;19970;-73
2021/11/01 11:49:54;;;;;;;;;;;;;;;13.73;50.98;98032.19;5034237;28;19947;-73
2021/11/01 11:52:20;;;;;;;;;;;;;;;13.52;51.40;98035.78;5050833;28;20257;-75
2021/11/01 11:54:54;;;;;;;;;;;;;;;13.26;51.78;98024.81;5050495;28;19932;-71
2021/11/01 11:57:20;;;;;;;;;;;;;;;13.26;52.42;98021.34;5051814;28;19929;-74
2021/11/01 11:59:47;;;;;;;;;;;;;;;13.37;51.59;98028.41;5053639;28;19917;-73
2021/11/01 12:02:12;;;;;;;;;;;;;;;13.34;51.52;98020.69;5024606;28;19917;-73
2021/11/01 12:04:47;;;;;;;;;;;;;;;13.31;51.54;98022.66;5049612;28;19923;-73
2021/11/01 12:07:16;;;;;;;;;;;;;;;13.24;51.41;98016.22;5051175;28;20400;-72
2021/11/01 12:09:59;;;;;;;;;;;;;;;13.21;51.69;98020.94;5049836;28;19917;-73
2021/11/01 12:17:47;;;;;;;;;;;;;;;13.26;51.02;98016.88;5050054;28;20438;-73
2021/11/01 12:20:13;;;;;;;;;;;;;;;13.22;51.16;98007.56;5046155;28;19943;-73
2021/11/01 12:22:42;;;;;;;;;;;;;;;13.21;50.61;98011.16;5049252;28;19925;-73
2021/11/01 12:25:11;;;;;;;;;;;;;;;13.22;50.82;98012.88;5049441;28;19917;-73
2021/11/01 12:27:40;;;;;;;;;;;;;;;13.22;51.10;98002.28;5049401;28;19924;-72
2021/11/01 12:30:08;;;;;;;;;;;;;;;13.30;50.68;98004.28;5048624;28;19939;-72
2021/11/01 12:32:36;;;;;;;;;;;;;;;13.23;50.54;97997.81;5048961;28;19924;-72
2021/11/01 12:35:05;;;;;;;;;;;;;;;13.20;50.46;97993.63;5048759;28;19950;-72
2021/11/01 12:37:46;;;;;;;;;;;;;;;13.17;50.86;97998.34;5049227;28;20012;-73
2021/11/01 12:43:01;;;;;;;;;;;;;;;13.29;51.70;97998.16;5045556;28;19923;-73
2021/11/01 12:58:53;;;;;;;;;;;;;;;13.27;51.51;97972.78;5049365;28;20454;-73
2021/11/01 13:01:19;;;;;;;;;;;;;;;13.21;51.08;97979.41;5046193;28;20269;-72
2021/11/01 13:03:48;;;;;;;;;;;;;;;13.23;51.16;97966.88;5030593;28;19931;-73
2021/11/01 13:06:23;;;;;;;;;;;;;;;13.20;51.27;97967.16;5048923;28;19974;-73
2021/11/01 13:08:50;;;;;;;;;;;;;;;13.20;51.21;97961.88;5044208;28;19917;-74
2021/11/01 13:11:28;;;;;;;;;;;;;;;13.21;51.00;97971.47;5047998;28;19916;-73
2021/11/01 13:19:15;;;;;;;;;;;;;;;13.23;50.68;97953.66;5047100;28;19931;-73
2021/11/01 13:22:25;;;;;;;;;;;;;;;13.23;51.69;97956.31;5048126;28;20373;-74
2021/11/01 13:24:39;;;;;;;;;;;;;;;13.23;52.00;97953.66;5045581;28;20292;-72
2021/11/01 13:27:30;;;;;;;;;;;;;;;13.28;52.06;97955.94;5051773;28;19925;-73
2021/11/01 13:37:40;;;;;;;;;;;;;;;13.28;50.73;97963.88;5053280;28;19932;-73
2021/11/01 13:40:06;;;;;;;;;;;;;;;13.26;50.95;97955.19;5050396;28;19979;-72
2021/11/01 13:42:31;;;;;;;;;;;;;;;13.28;51.92;97959.41;5041944;28;20381;-73
2021/11/01 13:45:11;;;;;;;;;;;;;;;13.30;52.13;97959.28;5048866;28;19925;-72
2021/11/01 13:48:00;;;;;;;;;;;;;;;13.23;51.56;97966.06;5052133;28;19917;-73
2021/11/01 13:50:33;;;;;;;;;;;;;;;13.21;50.81;97958.25;5043462;28;19924;-74
2021/11/01 13:53:13;;;;;;;;;;;;;;;13.15;50.38;97956.16;5052422;28;20342;-72
2021/11/01 13:55:58;;;;;;;;;;;;;;;13.10;50.52;97961.88;5051833;28;19923;-72
2021/11/01 14:01:23;;;;;;;;;;;;;;;13.14;51.43;97957.13;5051493;28;19940;-72
2021/11/01 14:12:06;;;;;;;;;;;;;;;13.15;51.33;97950.88;5052057;28;19924;-73
2021/11/01 14:15:20;;;;;;;;;;;;;;;13.12;50.93;97945.88;5053147;28;20464;-73
2021/11/01 15:11:19;;;;;;;;;;;;;;;12.76;54.65;97986.97;5048106;28;20271;-72
2021/11/01 15:24:18;;;;;;;;;;;;;;;12.62;53.61;97986.34;4996116;28;19917;-73
2021/11/01 15:29:42;;;;;;;;;;;;;;;12.56;53.76;97986.06;5049462;28;19963;-72
2021/11/01 15:40:56;;;;;;;;;;;;;;;12.36;54.18;97998.34;5049470;28;19924;-74
2021/11/01 16:16:16;;;;;;;;;;;;;;;11.61;59.51;98000.13;5049878;28;19994;-72
2021/11/01 16:18:43;;;;;;;;;;;;;;;11.52;59.80;97993.00;5049124;28;20292;-72
2021/11/01 16:21:09;;;;;;;;;;;;;;;11.47;59.33;98001.28;5049476;28;19917;-71
2021/11/01 16:23:35;;;;;;;;;;;;;;;11.36;60.16;97998.66;5049380;28;19928;-72
2021/11/01 16:26:09;;;;;;;;;;;;;;;11.32;60.57;97998.09;5028160;28;19923;-72
2021/11/01 16:28:35;;;;;;;;;;;;;;;11.30;60.29;97996.53;5049418;28;19956;-72
2021/11/01 16:33:48;;;;;;;;;;;;;;;11.20;60.81;97998.22;5049243;28;19954;-72
2021/11/01 16:36:40;;;;;;;;;;;;;;;11.12;61.05;98001.47;5047936;28;19921;-71
2021/11/01 16:39:06;;;;;;;;;;;;;;;11.05;61.42;98006.41;5049519;28;19982;-73
2021/11/01 16:41:32;;;;;;;;;;;;;;;10.93;61.76;98012.66;5048220;28;20368;-71
2021/11/01 16:44:00;;;;;;;;;;;;;;;10.90;62.26;98005.84;5033768;28;19982;-72
2021/11/01 16:46:26;;;;;;;;;;;;;;;10.73;63.55;98009.81;5029152;28;19917;-71
2021/11/01 16:48:52;;;;;;;;;;;;;;;10.66;63.12;98005.13;5029628;28;19928;-72
2021/11/01 16:51:17;;;;;;;;;;;;;;;10.48;63.95;98002.97;5028713;28;19940;-71
2021/11/01 16:53:44;;;;;;;;;;;;;;;10.48;63.65;98002.09;5029314;28;19944;-70
2021/11/01 16:56:34;;;;;;;;;;;;;;;10.53;63.37;98011.34;5010915;28;20430;-73
2021/11/01 16:59:07;;;;;;;;;;;;;;;10.58;62.98;98010.13;5031740;28;19924;-73
2021/11/01 17:01:33;;;;;;;;;;;;;;;10.59;63.50;98014.47;5012801;28;19928;-73
2021/11/01 17:04:04;;;;;;;;;;;;;;;10.52;63.83;98014.09;5016922;28;19918;-73
2021/11/01 17:09:33;;;;;;;;;;;;;;;10.35;64.55;98012.75;5029515;28;20373;-71
2021/11/01 17:23:13;;;;;;;;;;;;;;;10.20;65.17;98027.06;5049125;28;19924;-72
2021/11/01 17:26:01;;;;;;;;;;;;;;;10.15;65.35;98030.06;5031786;28;19964;-72
2021/11/01 17:29:06;;;;;;;;;;;;;;;10.16;65.87;98028.25;5048171;28;19926;-73
2021/11/01 17:36:56;;;;;;;;;;;;;;;10.19;64.56;98033.28;5049237;28;19944;-72
2021/11/01 18:51:09;;;;;;;;;;;;;;;9.81;67.57;98060.69;5015635;28;19924;-73
2021/11/01 18:53:36;;;;;;;;;;;;;;;9.81;67.94;98060.69;5012882;28;20723;-72
2021/11/01 18:56:12;;;;;;;;;;;;;;;9.79;67.91;98054.69;5013275;28;20324;-73
2021/11/01 18:58:39;;;;;;;;;;;;;;;9.81;67.88;98056.25;5030057;28;19928;-73
2021/11/01 19:01:07;;;;;;;;;;;;;;;9.85;68.40;98067.41;5012448;28;20026;-71
2021/11/01 19:03:37;;;;;;;;;;;;;;;9.87;68.27;98065.50;5030953;28;20300;-72
2021/11/01 19:14:41;;;;;;;;;;;;;;;9.99;68.97;98072.50;5020520;28;19917;-72
2021/11/01 20:04:16;;;;;;;;;;;;;;;9.90;73.59;98065.28;5049742;28;19982;-74
2021/11/01 20:09:58;;;;;;;;;;;;;;;9.90;73.36;98062.66;5049981;28;19928;-75
2021/11/01 21:26:10;;;;;;;;;;;;;;;9.57;70.86;98031.75;5029797;28;20435;-73
2021/11/01 21:28:35;;;;;;;;;;;;;;;9.54;71.17;98030.19;5010838;28;19921;-72
2021/11/01 21:31:00;;;;;;;;;;;;;;;9.51;71.25;98035.69;5043678;28;19946;-73
2021/11/01 21:33:31;;;;;;;;;;;;;;;9.51;71.13;98040.94;5031677;28;19959;-72
2021/11/01 21:36:03;;;;;;;;;;;;;;;9.48;70.88;98032.44;5049104;28;19923;-72
2021/11/01 21:38:29;;;;;;;;;;;;;;;9.48;71.44;98037.72;5049829;28;19928;-72
2021/11/01 21:40:54;;;;;;;;;;;;;;;9.47;70.74;98039.47;5051420;28;19921;-73
2021/11/01 21:43:22;;;;;;;;;;;;;;;9.45;71.14;98041.38;5054041;28;19921;-75
2021/11/01 21:45:48;;;;;;;;;;;;;;;9.47;71.52;98036.84;5035824;28;19917;-73
2021/11/01 21:48:13;;;;;;;;;;;;;;;9.44;70.99;98035.28;5042904;28;19921;-73
2021/11/01 21:50:41;;;;;;;;;;;;;;;9.46;70.65;98029.91;5034302;28;19923;-73
2021/11/01 21:53:09;;;;;;;;;;;;;;;9.42;71.24;98034.53;5034697;28;19924;-73
2021/11/01 21:55:36;;;;;;;;;;;;;;;9.39;71.37;98031.31;5052020;28;19925;-73
2021/11/01 22:01:07;;;;;;;;;;;;;;;9.38;71.15;98025.22;5052275;28;20307;-74
2021/11/01 22:17:28;;;;;;;;;;;;;;;9.24;71.60;98018.31;5056754;28;20019;-73
2021/11/01 22:20:10;;;;;;;;;;;;;;;9.17;71.36;98022.34;5055282;28;19932;-73
2021/11/01 22:25:45;;;;;;;;;;;;;;;9.02;72.86;98013.75;5033585;28;19924;-72
2021/11/01 22:33:54;;;;;;;;;;;;;;;9.03;72.23;98025.09;5031701;28;19939;-73
2021/11/01 22:39:17;;;;;;;;;;;;;;;8.99;73.11;98021.88;5034196;28;20016;-71
2021/11/01 22:41:54;;;;;;;;;;;;;;;8.90;73.38;98025.13;5030674;28;19918;-71
2021/11/01 22:44:36;;;;;;;;;;;;;;;8.94;73.26;98023.16;5031546;28;20215;-72
2021/11/01 22:57:49;;;;;;;;;;;;;;;8.88;73.10;98002.53;5031451;28;20362;-73
2021/11/01 23:00:20;;;;;;;;;;;;;;;8.85;73.27;98000.97;5029840;28;19924;-72
2021/11/01 23:02:47;;;;;;;;;;;;;;;8.88;73.67;97997.28;5031666;28;19955;-71
2021/11/01 23:32:30;;;;;;;;;;;;;;;8.58;73.97;97999.34;5030213;28;19991;-72
2021/11/01 23:34:55;;;;;;;;;;;;;;;8.57;74.04;97996.84;5030644;28;19964;-72
2021/11/01 23:37:21;;;;;;;;;;;;;;;8.55;74.54;98001.34;5033498;28;20018;-72
2021/11/01 23:39:46;;;;;;;;;;;;;;;8.54;73.91;98004.91;5016507;28;19936;-71
2021/11/01 23:42:11;;;;;;;;;;;;;;;8.53;74.30;98000.63;5029180;28;19921;-71
2021/11/01 23:44:37;;;;;;;;;;;;;;;8.51;74.58;97999.88;5012249;28;19917;-71
2021/11/01 23:47:02;;;;;;;;;;;;;;;8.47;74.03;97998.44;5029664;28;19917;-71
2021/11/01 23:49:27;;;;;;;;;;;;;;;8.43;74.03;97996.94;5012432;28;19917;-73
2021/11/01 23:52:01;;;;;;;;;;;;;;;8.43;74.80;97991.69;5029965;28;20364;-72
2021/11/01 23:54:38;;;;;;;;;;;;;;;8.39;74.61;98001.53;5030376;28;19921;-74
2021/11/01 23:57:04;;;;;;;;;;;;;;;8.41;74.49;97998.84;5038959;28;19933;-72
2021/11/01 23:59:29;;;;;;;;;;;;;;;8.40;74.65;98003.25;5042856;28;19955;-72
